Reecon Whale — 9HA2885 — position and weather

sailwx.info

Track history (hours):
 
Tides and Currents Weather Stations Pressure Air Temp Water Temp Dewpoint Dewpoint Depression Visibility Wind Speed Wind Dir Waves Ship Positions

Reecon Whale

Last reported at 2015-May-22 09:33 UTC. Time now 2015-May-22 10:02 UTC.
Position N 37°03' E 023°36'.

Length 145 m; draft 9.1 m.

Type: Ship. MMSI: 256579000.

Date/timePositionNaut miles runAvg speedWind from/ knotsBaromVisibWave heightAir tempDewpointWater temp
2015-May-22 09:33N 37°03' E 023°36'1110.7
2015-May-22 08:32N 37°13' E 023°38'1010.6
2015-May-22 07:33N 37°24' E 023°39'1010.4
2015-May-22 06:33N 37°34' E 023°42'1110.8
2015-May-22 05:34N 37°45' E 023°39'1110.5
2015-May-22 04:34N 37°55' E 023°37'3 2.6
2015-May-22 03:31N 37°57' E 023°36'0 0.0
2015-May-22 02:31N 37°57' E 023°36'0 0.0
2015-May-22 01:31N 37°57' E 023°36'0 0.0
2015-May-22 00:31N 37°57' E 023°36'0 0.0
2015-May-21 23:31N 37°57' E 023°36'0 0.0
2015-May-21 22:31N 37°57' E 023°36'0 0.0
2015-May-21 21:31N 37°57' E 023°36'0 0.0
2015-May-21 20:31N 37°57' E 023°36'0 0.0
2015-May-21 19:31N 37°57' E 023°36'0 0.0
2015-May-21 18:31N 37°57' E 023°36'0 0.0
2015-May-21 17:31N 37°57' E 023°36'0 0.0
2015-May-21 16:31N 37°57' E 023°36'0 0.0
2015-May-21 15:31N 37°57' E 023°36'0 0.0
2015-May-21 14:31N 37°57' E 023°36'0 0.0
2015-May-21 13:22N 37°57' E 023°36'0 0.0
2015-May-21 12:31N 37°57' E 023°36'0 0.0
2015-May-21 11:25N 37°57' E 023°36'0 0.0
2015-May-21 10:31N 37°57' E 023°36'0 0.0
2015-May-21 09:31N 37°57' E 023°36'0 0.0
2015-May-21 08:28N 37°57' E 023°36'0 0.0
2015-May-21 07:31N 37°57' E 023°36'0 0.0
2015-May-21 06:31N 37°57' E 023°36'0 0.0
2015-May-21 05:31N 37°57' E 023°36'0 0.0
2015-May-21 04:31N 37°57' E 023°36'0 0.0
2015-May-21 03:31N 37°57' E 023°36'0 0.0
2015-May-21 02:31N 37°57' E 023°36'0 0.0
2015-May-21 01:31N 37°57' E 023°36'0 0.0
2015-May-21 00:31N 37°57' E 023°36'0 0.0
2015-May-20 23:31N 37°57' E 023°36'0 0.0
2015-May-20 22:31N 37°57' E 023°36'0 0.0
2015-May-20 21:31N 37°57' E 023°36'0 0.0
2015-May-20 20:31N 37°57' E 023°36'3 2.6
2015-May-20 19:34N 37°55' E 023°37'4 4.4
2015-May-20 18:34N 37°51' E 023°34'2 2.1
2015-May-20 17:33N 37°51' E 023°32'0 0.1
2015-May-20 16:33N 37°51' E 023°32'0 0.1
2015-May-20 15:33N 37°51' E 023°32'0 0.2
2015-May-20 14:33N 37°51' E 023°31'0 0.1
2015-May-20 13:33N 37°51' E 023°32'0 0.0
2015-May-20 12:33N 37°51' E 023°32'0 0.1
2015-May-20 11:33N 37°51' E 023°32'0 0.1
2015-May-20 10:33N 37°51' E 023°32'0 0.0
2015-May-20 09:33N 37°51' E 023°32'0 0.0
2015-May-20 08:33N 37°51' E 023°32'0 0.0
2015-May-20 07:33N 37°51' E 023°32'0 0.0
2015-May-20 06:33N 37°51' E 023°32'0 0.0
2015-May-20 05:33N 37°51' E 023°32'0 0.0
2015-May-20 04:33N 37°51' E 023°32'0 0.0
2015-May-20 03:33N 37°51' E 023°32'0 0.0
2015-May-20 02:33N 37°51' E 023°32'0 0.0
2015-May-20 01:33N 37°51' E 023°32'0 0.1
2015-May-20 00:33N 37°51' E 023°32'0 0.0
2015-May-19 23:33N 37°51' E 023°32'0 0.0
2015-May-19 22:33N 37°51' E 023°32'0 0.1
2015-May-19 21:33N 37°51' E 023°32'0 0.0
2015-May-19 20:33N 37°51' E 023°32'0 0.1
2015-May-19 19:33N 37°51' E 023°32'0 0.1
2015-May-19 18:33N 37°51' E 023°31'1 0.7
2015-May-19 17:34N 37°51' E 023°32'6 6.3
2015-May-19 16:33N 37°50' E 023°40'1110.7
2015-May-19 15:33N 37°40' E 023°46'1111.2
2015-May-19 14:33N 37°30' E 023°42'1110.6
2015-May-19 13:34N 37°19' E 023°40'1110.6
2015-May-19 12:33N 37°09' E 023°38'1110.6
2015-May-19 11:33N 36°58' E 023°35'1110.4
2015-May-19 10:33N 36°49' E 023°30'41310.0
2015-May-17 17:14N 36°20' E 014°58'710.2
2015-May-17 16:33N 36°20' E 014°49'1010.5
2015-May-17 15:33N 36°20' E 014°36'1010.4
2015-May-17 14:34N 36°21' E 014°23'1110.5
2015-May-17 13:33N 36°25' E 014°11'1110.9
2015-May-17 12:33N 36°29' E 013°58'1111.1
2015-May-17 11:33N 36°33' E 013°45'1211.0
2015-May-17 10:28N 36°37' E 013°31'1010.8
2015-May-17 09:33N 36°41' E 013°20'1110.7
2015-May-17 08:30N 36°44' E 013°07'  
2015-May-14 17:10N 36°46' E 003°04'0 0.0
2015-May-14 03:03N 36°46' E 003°04'0 0.0
2015-May-14 02:33N 36°46' E 003°04'0 0.0
2015-May-14 01:33N 36°46' E 003°04'0 0.0
2015-May-14 00:34N 36°46' E 003°04'0 0.0
2015-May-13 23:33N 36°46' E 003°04'0 0.0
2015-May-13 22:33N 36°46' E 003°04'0 0.0
2015-May-13 21:29N 36°46' E 003°04'0 0.0
2015-May-13 20:33N 36°46' E 003°04'0 0.0
2015-May-13 19:33N 36°46' E 003°04'0 0.0
2015-May-13 18:33N 36°46' E 003°04'0 0.0
2015-May-13 17:34N 36°46' E 003°04'0 0.0
2015-May-13 16:33N 36°46' E 003°04'0 0.0
2015-May-13 15:34N 36°46' E 003°04'0 0.0
2015-May-13 14:33N 36°46' E 003°04'0 0.0
2015-May-13 13:33N 36°46' E 003°04'0 0.0
2015-May-13 12:33N 36°46' E 003°04'0 0.0
2015-May-13 11:33N 36°46' E 003°04'0 0.0
2015-May-13 10:33N 36°46' E 003°04'0 0.0
2015-May-13 09:33N 36°46' E 003°04'0 0.0
2015-May-13 08:33N 36°46' E 003°04'0 0.0
2015-May-13 07:33N 36°46' E 003°04'0 0.0
2015-May-13 06:21N 36°46' E 003°04'0 0.0
2015-May-13 05:27N 36°46' E 003°04'0 0.0
2015-May-13 04:34N 36°46' E 003°04'0 0.0
2015-May-13 02:33N 36°46' E 003°04'0 0.0
2015-May-13 01:33N 36°46' E 003°04'0 0.0
2015-May-13 00:07N 36°46' E 003°04'0 0.0
2015-May-12 23:33N 36°46' E 003°04'0 0.0
2015-May-12 22:33N 36°46' E 003°04'0 0.0
2015-May-12 21:33N 36°46' E 003°04'0 0.0
2015-May-12 20:28N 36°46' E 003°04'0 0.0
2015-May-12 19:31N 36°46' E 003°04'0 0.0
2015-May-12 18:34N 36°46' E 003°04'0 0.0
2015-May-12 17:33N 36°46' E 003°04'0 0.0
2015-May-12 16:33N 36°46' E 003°04'0 0.0
2015-May-12 15:32N 36°46' E 003°04'0 0.0
2015-May-12 14:33N 36°46' E 003°04'0 0.0
2015-May-12 13:33N 36°46' E 003°04'0 0.0
2015-May-12 12:33N 36°46' E 003°04'0 0.0
2015-May-12 11:33N 36°46' E 003°04'0 0.0
2015-May-12 10:34N 36°46' E 003°04'  
Track history (hours):
 
Tides and Currents Weather Stations Pressure Air Temp Water Temp Dewpoint Dewpoint Depression Visibility Wind Speed Wind Dir Waves Ship Positions

Reecon Whale

Last reported at 2015-May-22 09:33 UTC. Time now 2015-May-22 10:02 UTC.
Position N 37°03' E 023°36'.

Length 145 m; draft 9.1 m.

Type: Ship. MMSI: 256579000.

Date/timePositionNaut miles runAvg speedWind from/ knotsBaromVisibWave heightAir tempDewpointWater temp
2015-May-22 09:33N 37°03' E 023°36'1110.7
2015-May-22 08:32N 37°13' E 023°38'1010.6
2015-May-22 07:33N 37°24' E 023°39'1010.4
2015-May-22 06:33N 37°34' E 023°42'1110.8
2015-May-22 05:34N 37°45' E 023°39'1110.5
2015-May-22 04:34N 37°55' E 023°37'3 2.6
2015-May-22 03:31N 37°57' E 023°36'0 0.0
2015-May-22 02:31N 37°57' E 023°36'0 0.0
2015-May-22 01:31N 37°57' E 023°36'0 0.0
2015-May-22 00:31N 37°57' E 023°36'0 0.0
2015-May-21 23:31N 37°57' E 023°36'0 0.0
2015-May-21 22:31N 37°57' E 023°36'0 0.0
2015-May-21 21:31N 37°57' E 023°36'0 0.0
2015-May-21 20:31N 37°57' E 023°36'0 0.0
2015-May-21 19:31N 37°57' E 023°36'0 0.0
2015-May-21 18:31N 37°57' E 023°36'0 0.0
2015-May-21 17:31N 37°57' E 023°36'0 0.0
2015-May-21 16:31N 37°57' E 023°36'0 0.0
2015-May-21 15:31N 37°57' E 023°36'0 0.0
2015-May-21 14:31N 37°57' E 023°36'0 0.0
2015-May-21 13:22N 37°57' E 023°36'0 0.0
2015-May-21 12:31N 37°57' E 023°36'0 0.0
2015-May-21 11:25N 37°57' E 023°36'0 0.0
2015-May-21 10:31N 37°57' E 023°36'0 0.0
2015-May-21 09:31N 37°57' E 023°36'0 0.0
2015-May-21 08:28N 37°57' E 023°36'0 0.0
2015-May-21 07:31N 37°57' E 023°36'0 0.0
2015-May-21 06:31N 37°57' E 023°36'0 0.0
2015-May-21 05:31N 37°57' E 023°36'0 0.0
2015-May-21 04:31N 37°57' E 023°36'0 0.0
2015-May-21 03:31N 37°57' E 023°36'0 0.0
2015-May-21 02:31N 37°57' E 023°36'0 0.0
2015-May-21 01:31N 37°57' E 023°36'0 0.0
2015-May-21 00:31N 37°57' E 023°36'0 0.0
2015-May-20 23:31N 37°57' E 023°36'0 0.0
2015-May-20 22:31N 37°57' E 023°36'0 0.0
2015-May-20 21:31N 37°57' E 023°36'0 0.0
2015-May-20 20:31N 37°57' E 023°36'3 2.6
2015-May-20 19:34N 37°55' E 023°37'4 4.4
2015-May-20 18:34N 37°51' E 023°34'2 2.1
2015-May-20 17:33N 37°51' E 023°32'0 0.1
2015-May-20 16:33N 37°51' E 023°32'0 0.1
2015-May-20 15:33N 37°51' E 023°32'0 0.2
2015-May-20 14:33N 37°51' E 023°31'0 0.1
2015-May-20 13:33N 37°51' E 023°32'0 0.0
2015-May-20 12:33N 37°51' E 023°32'0 0.1
2015-May-20 11:33N 37°51' E 023°32'0 0.1
2015-May-20 10:33N 37°51' E 023°32'0 0.0
2015-May-20 09:33N 37°51' E 023°32'0 0.0
2015-May-20 08:33N 37°51' E 023°32'0 0.0
2015-May-20 07:33N 37°51' E 023°32'0 0.0
2015-May-20 06:33N 37°51' E 023°32'0 0.0
2015-May-20 05:33N 37°51' E 023°32'0 0.0
2015-May-20 04:33N 37°51' E 023°32'0 0.0
2015-May-20 03:33N 37°51' E 023°32'0 0.0
2015-May-20 02:33N 37°51' E 023°32'0 0.0
2015-May-20 01:33N 37°51' E 023°32'0 0.1
2015-May-20 00:33N 37°51' E 023°32'0 0.0
2015-May-19 23:33N 37°51' E 023°32'0 0.0
2015-May-19 22:33N 37°51' E 023°32'0 0.1
2015-May-19 21:33N 37°51' E 023°32'0 0.0
2015-May-19 20:33N 37°51' E 023°32'0 0.1
2015-May-19 19:33N 37°51' E 023°32'0 0.1
2015-May-19 18:33N 37°51' E 023°31'1 0.7
2015-May-19 17:34N 37°51' E 023°32'6 6.3
2015-May-19 16:33N 37°50' E 023°40'1110.7
2015-May-19 15:33N 37°40' E 023°46'1111.2
2015-May-19 14:33N 37°30' E 023°42'1110.6
2015-May-19 13:34N 37°19' E 023°40'1110.6
2015-May-19 12:33N 37°09' E 023°38'1110.6
2015-May-19 11:33N 36°58' E 023°35'1110.4
2015-May-19 10:33N 36°49' E 023°30'41310.0
2015-May-17 17:14N 36°20' E 014°58'710.2
2015-May-17 16:33N 36°20' E 014°49'1010.5
2015-May-17 15:33N 36°20' E 014°36'1010.4
2015-May-17 14:34N 36°21' E 014°23'1110.5
2015-May-17 13:33N 36°25' E 014°11'1110.9
2015-May-17 12:33N 36°29' E 013°58'1111.1
2015-May-17 11:33N 36°33' E 013°45'1211.0
2015-May-17 10:28N 36°37' E 013°31'1010.8
2015-May-17 09:33N 36°41' E 013°20'1110.7
2015-May-17 08:30N 36°44' E 013°07'  
2015-May-14 17:10N 36°46' E 003°04'0 0.0
2015-May-14 03:03N 36°46' E 003°04'0 0.0
2015-May-14 02:33N 36°46' E 003°04'0 0.0
2015-May-14 01:33N 36°46' E 003°04'0 0.0
2015-May-14 00:34N 36°46' E 003°04'0 0.0
2015-May-13 23:33N 36°46' E 003°04'0 0.0
2015-May-13 22:33N 36°46' E 003°04'0 0.0
2015-May-13 21:29N 36°46' E 003°04'0 0.0
2015-May-13 20:33N 36°46' E 003°04'0 0.0
2015-May-13 19:33N 36°46' E 003°04'0 0.0
2015-May-13 18:33N 36°46' E 003°04'0 0.0
2015-May-13 17:34N 36°46' E 003°04'0 0.0
2015-May-13 16:33N 36°46' E 003°04'0 0.0
2015-May-13 15:34N 36°46' E 003°04'0 0.0
2015-May-13 14:33N 36°46' E 003°04'0 0.0
2015-May-13 13:33N 36°46' E 003°04'0 0.0
2015-May-13 12:33N 36°46' E 003°04'0 0.0
2015-May-13 11:33N 36°46' E 003°04'0 0.0
2015-May-13 10:33N 36°46' E 003°04'0 0.0
2015-May-13 09:33N 36°46' E 003°04'0 0.0
2015-May-13 08:33N 36°46' E 003°04'0 0.0
2015-May-13 07:33N 36°46' E 003°04'0 0.0
2015-May-13 06:21N 36°46' E 003°04'0 0.0
2015-May-13 05:27N 36°46' E 003°04'0 0.0
2015-May-13 04:34N 36°46' E 003°04'0 0.0
2015-May-13 02:33N 36°46' E 003°04'0 0.0
2015-May-13 01:33N 36°46' E 003°04'0 0.0
2015-May-13 00:07N 36°46' E 003°04'0 0.0
2015-May-12 23:33N 36°46' E 003°04'0 0.0
2015-May-12 22:33N 36°46' E 003°04'0 0.0
2015-May-12 21:33N 36°46' E 003°04'0 0.0
2015-May-12 20:28N 36°46' E 003°04'0 0.0
2015-May-12 19:31N 36°46' E 003°04'0 0.0
2015-May-12 18:34N 36°46' E 003°04'0 0.0
2015-May-12 17:33N 36°46' E 003°04'0 0.0
2015-May-12 16:33N 36°46' E 003°04'0 0.0
2015-May-12 15:32N 36°46' E 003°04'0 0.0
2015-May-12 14:33N 36°46' E 003°04'0 0.0
2015-May-12 13:33N 36°46' E 003°04'0 0.0
2015-May-12 12:33N 36°46' E 003°04'0 0.0
2015-May-12 11:33N 36°46' E 003°04'0 0.0
2015-May-12 10:34N 36°46' E 003°04'  

Dump ship's entire track history